aviador You're here:

KFLO Decoded Metar

FLORENCE in SC, USA
Report Time2017-06-28 11:53:00
UTC Time2017-06-28 12:07:10
Flight Rules vfr VFR
Wind100° at 06 kt
W.Decomp.*RWY 09: 5.8 kt HW 1.6 kt RCW
RWY 19: 0.5 kt HW 6 kt LCW
W.Rank100° ranks 34
Current wind is above 100° avg. (5.4)
Visibility9999 m
Phenomena:N/A
Clouds:N/A
Expected CloudBase > 2,400 ft AGL from Temp-Dew spread
CeilingNone
Temp21°C (ISA +6)
Dew Point15°C (69% RH)
AAT20.5°C
QNH1021 hPa
Density Alt837 ft
Elevation144 ft
Report Wrong Elevation
Raw Report
METAR KFLO 281153Z 10006KT 10SM CLR 21/15 A3016 RMK AO2 SLP208 T02060150
10206 20172 53012=

Extra information for KFLO:More info

Metar Taf Metar & Taf Last 4 Metars F.Rules Stats Wind Profile Meteogram Temp Stats Airport Information Weather charts Add Link Nearby VenuesMetar ALERT Operation Metar Decoded Social comments

AIRNAV info for KFLO